createdAt,value
2023-02-01T00:03:44.748Z,5.25
2023-02-01T00:07:56.318Z,5.26
2023-02-01T00:12:07.888Z,5.21
2023-02-01T00:16:24.948Z,5.14
2023-02-01T00:20:36.473Z,5.07
2023-02-01T00:24:47.965Z,5.05
2023-02-01T00:29:00.207Z,5.03
2023-02-01T00:33:12.092Z,5.06
2023-02-01T00:37:24.194Z,5.04
2023-02-01T00:41:36.048Z,5.05
2023-02-01T00:45:48.006Z,5.09
2023-02-01T00:49:59.500Z,5.12
2023-02-01T00:54:12.573Z,5.11
2023-02-01T00:58:27.543Z,5.21
2023-02-01T01:02:39.161Z,5.27
2023-02-01T01:06:50.705Z,5.25
2023-02-01T01:11:11.777Z,5.31
2023-02-01T01:15:23.290Z,5.24
2023-02-01T01:19:34.784Z,5.26
2023-02-01T01:23:47.710Z,5.24
2023-02-01T01:27:59.321Z,5.12
2023-02-01T01:32:10.774Z,5.10
2023-02-01T01:36:23.431Z,5.00
2023-02-01T01:40:34.925Z,4.99
2023-02-01T01:45:06.308Z,5.03
2023-02-01T01:49:22.765Z,5.01
2023-02-01T01:53:48.886Z,4.97
2023-02-01T01:58:07.148Z,4.94
2023-02-01T02:02:18.952Z,4.93
2023-02-01T02:06:42.739Z,4.93
2023-02-01T02:11:00.684Z,4.93
2023-02-01T02:15:14.971Z,4.97
2023-02-01T02:19:51.301Z,5.01
2023-02-01T02:24:10.409Z,5.07
2023-02-01T02:28:48.308Z,5.05
2023-02-01T02:33:35.802Z,5.10
2023-02-01T02:38:15.423Z,5.13
2023-02-01T02:42:53.218Z,5.19
2023-02-01T02:47:26.159Z,5.12
2023-02-01T02:52:21.881Z,5.14
2023-02-01T02:56:53.233Z,5.08
2023-02-01T03:01:24.344Z,5.00
2023-02-01T03:05:37.994Z,4.99
2023-02-01T03:09:50.707Z,4.99
2023-02-01T03:14:07.473Z,5.01
2023-02-01T03:18:36.690Z,5.07
2023-02-01T03:22:50.977Z,5.04
2023-02-01T03:27:10.046Z,5.00
2023-02-01T03:31:22.689Z,4.96
2023-02-01T03:35:43.410Z,5.03
2023-02-01T03:40:02.041Z,5.11
2023-02-01T03:44:27.822Z,5.20
2023-02-01T03:48:41.188Z,5.34
2023-02-01T03:53:22.559Z,5.53
2023-02-01T03:57:38.953Z,5.55
2023-02-01T04:01:51.332Z,5.44
2023-02-01T04:06:03.048Z,5.44
2023-02-01T04:10:17.434Z,5.39
2023-02-01T04:14:30.266Z,5.35
2023-02-01T04:18:41.825Z,5.30
2023-02-01T04:22:53.419Z,5.20
2023-02-01T04:27:05.286Z,5.41
2023-02-01T04:31:44.109Z,5.46
2023-02-01T04:35:55.613Z,5.46
2023-02-01T04:40:07.821Z,5.62
2023-02-01T04:44:19.741Z,5.82
2023-02-01T04:48:31.295Z,5.90
2023-02-01T04:52:42.838Z,6.02
2023-02-01T04:56:54.458Z,6.08
2023-02-01T05:01:07.584Z,6.16
2023-02-01T05:05:19.037Z,6.25
2023-02-01T05:09:30.587Z,6.25
2023-02-01T05:13:51.065Z,6.36
2023-02-01T05:18:02.535Z,6.32
2023-02-01T05:22:14.016Z,6.45
2023-02-01T05:26:25.956Z,6.51
2023-02-01T05:30:38.867Z,6.49
2023-02-01T05:34:51.483Z,6.55
2023-02-01T05:39:03.239Z,6.58
2023-02-01T05:43:14.758Z,6.56
2023-02-01T05:47:26.250Z,6.61
2023-02-01T05:51:37.773Z,6.64
2023-02-01T05:55:49.294Z,6.62
2023-02-01T06:00:01.038Z,6.64
2023-02-01T06:04:12.619Z,6.66
2023-02-01T06:08:26.543Z,6.67
2023-02-01T06:12:38.280Z,6.69
2023-02-01T06:16:49.795Z,6.71
2023-02-01T06:21:01.766Z,6.75
2023-02-01T06:25:13.369Z,6.68
2023-02-01T06:29:24.922Z,6.72
2023-02-01T06:33:37.395Z,6.77
2023-02-01T06:37:48.933Z,6.80
2023-02-01T06:42:00.460Z,6.77
2023-02-01T06:46:15.799Z,6.81
2023-02-01T06:50:28.157Z,6.82
2023-02-01T06:54:39.739Z,6.86
2023-02-01T06:58:51.268Z,6.88
2023-02-01T07:03:03.160Z,6.82
2023-02-01T07:07:15.478Z,6.80
2023-02-01T07:11:28.939Z,6.80
2023-02-01T07:15:40.957Z,6.77
2023-02-01T07:19:52.489Z,6.75
2023-02-01T07:24:04.295Z,6.66
2023-02-01T07:28:16.069Z,6.59
2023-02-01T07:32:27.582Z,6.62
2023-02-01T07:36:39.465Z,6.56
2023-02-01T07:40:51.061Z,6.52
2023-02-01T07:45:19.997Z,6.48
2023-02-01T07:49:32.271Z,6.45
2023-02-01T07:53:46.167Z,6.57
2023-02-01T07:57:59.005Z,6.48
2023-02-01T08:02:10.480Z,6.51
2023-02-01T08:06:23.558Z,6.49
2023-02-01T08:10:36.098Z,6.60
2023-02-01T08:14:47.628Z,6.64
2023-02-01T08:18:59.224Z,6.68
2023-02-01T08:23:10.768Z,6.68
2023-02-01T08:27:22.258Z,6.59
2023-02-01T08:31:34.391Z,6.79
2023-02-01T08:35:45.958Z,6.89
2023-02-01T08:39:57.537Z,7.06
2023-02-01T08:44:09.055Z,7.18
2023-02-01T08:48:20.561Z,7.64
2023-02-01T08:52:32.074Z,8.91
2023-02-01T08:56:43.622Z,9.97
2023-02-01T09:00:55.176Z,10.81
2023-02-01T09:05:07.245Z,11.02
2023-02-01T09:09:18.794Z,11.49
2023-02-01T09:13:31.051Z,11.44
2023-02-01T09:17:44.475Z,10.65
2023-02-01T09:21:56.507Z,10.12
2023-02-01T09:26:08.290Z,9.83
2023-02-01T09:30:20.211Z,9.51
2023-02-01T09:34:32.290Z,9.70
2023-02-01T09:38:52.426Z,9.58
2023-02-01T09:43:26.500Z,9.89
2023-02-01T09:47:47.546Z,9.65
2023-02-01T09:52:01.487Z,9.41
2023-02-01T09:56:18.658Z,9.26
2023-02-01T10:00:36.131Z,9.20
2023-02-01T10:04:48.960Z,8.95
2023-02-01T10:09:06.677Z,8.91
2023-02-01T10:13:55.530Z,8.79
2023-02-01T10:18:30.233Z,8.78
2023-02-01T10:23:13.749Z,8.69
2023-02-01T10:27:24.245Z,8.53
2023-02-01T10:31:38.898Z,8.61
2023-02-01T10:36:13.083Z,8.49
2023-02-01T10:40:27.000Z,8.30
2023-02-01T10:44:46.484Z,8.16
2023-02-01T10:49:01.777Z,8.06
2023-02-01T10:53:19.658Z,8.00
2023-02-01T10:57:32.837Z,7.74
2023-02-01T11:01:47.574Z,7.87
2023-02-01T11:05:59.653Z,7.75
2023-02-01T11:10:39.358Z,7.80
2023-02-01T11:14:51.507Z,7.75
2023-02-01T11:19:03.927Z,7.76
2023-02-01T11:23:27.803Z,7.78
2023-02-01T11:27:49.493Z,7.82
2023-02-01T11:32:05.754Z,7.78
2023-02-01T11:36:21.693Z,7.94
2023-02-01T11:40:40.287Z,7.89
2023-02-01T11:44:52.285Z,7.83
2023-02-01T11:49:26.228Z,7.88
2023-02-01T11:54:11.856Z,7.97
2023-02-01T11:58:37.827Z,7.94
2023-02-01T12:03:01.636Z,8.07
2023-02-01T12:07:45.821Z,8.02
2023-02-01T12:12:26.049Z,8.06
2023-02-01T12:17:22.183Z,8.31
2023-02-01T12:21:53.925Z,8.28
2023-02-01T12:26:30.466Z,8.44
2023-02-01T12:31:14.249Z,8.56
2023-02-01T12:35:49.296Z,8.69
2023-02-01T12:40:19.603Z,8.82
2023-02-01T12:44:37.345Z,8.90
2023-02-01T12:49:20.168Z,8.85
2023-02-01T12:53:47.839Z,8.81
2023-02-01T12:58:13.969Z,8.71
2023-02-01T13:02:38.828Z,8.72
2023-02-01T13:07:18.056Z,8.78
2023-02-01T13:11:34.972Z,8.79
2023-02-01T13:15:55.155Z,8.65
2023-02-01T13:20:31.415Z,8.68
2023-02-01T13:24:48.540Z,8.68
2023-02-01T13:29:07.514Z,8.72
2023-02-01T13:33:54.405Z,8.70
2023-02-01T13:38:43.626Z,8.78
2023-02-01T13:42:59.430Z,8.71
2023-02-01T13:47:24.993Z,8.71
2023-02-01T13:51:41.933Z,8.71
2023-02-01T13:56:08.455Z,8.70
2023-02-01T14:00:39.404Z,8.71
2023-02-01T14:04:51.745Z,8.62
2023-02-01T14:09:09.461Z,8.64
2023-02-01T14:13:39.028Z,8.69
2023-02-01T14:17:51.163Z,8.74
2023-02-01T14:22:21.222Z,8.78
2023-02-01T14:26:36.095Z,8.79
2023-02-01T14:30:49.407Z,8.96
2023-02-01T14:35:03.624Z,8.95
2023-02-01T14:39:38.796Z,8.96
2023-02-01T14:43:52.275Z,8.96
2023-02-01T14:48:07.068Z,8.93
2023-02-01T14:52:22.629Z,8.82
2023-02-01T14:56:35.574Z,8.82
2023-02-01T15:00:57.256Z,8.87
2023-02-01T15:05:33.903Z,8.93
2023-02-01T15:09:48.806Z,8.97
2023-02-01T15:14:01.662Z,8.96
2023-02-01T15:18:19.607Z,8.88
2023-02-01T15:22:32.076Z,8.84
2023-02-01T15:26:43.888Z,8.69
2023-02-01T15:31:01.291Z,8.61
2023-02-01T15:35:56.114Z,8.55
2023-02-01T15:40:10.396Z,8.57
2023-02-01T15:44:44.142Z,8.58
2023-02-01T15:48:56.046Z,8.55
2023-02-01T15:53:19.054Z,8.53
2023-02-01T15:57:36.273Z,8.63
2023-02-01T16:01:48.927Z,8.66
2023-02-01T16:06:02.642Z,8.68
2023-02-01T16:10:28.418Z,8.64
2023-02-01T16:14:41.433Z,8.67
2023-02-01T16:18:53.371Z,8.66
2023-02-01T16:23:05.973Z,8.66
2023-02-01T16:27:17.659Z,8.64
2023-02-01T16:31:32.581Z,8.62
2023-02-01T16:35:44.198Z,8.66
2023-02-01T16:39:55.785Z,8.71
2023-02-01T16:44:07.947Z,8.73
2023-02-01T16:48:37.449Z,8.69
2023-02-01T16:52:49.032Z,8.76
2023-02-01T16:57:00.789Z,8.76
2023-02-01T17:01:17.147Z,8.85
2023-02-01T17:05:29.865Z,8.80
2023-02-01T17:09:41.595Z,8.76
2023-02-01T17:13:53.530Z,8.79
2023-02-01T17:18:06.523Z,8.73
2023-02-01T17:22:18.802Z,8.76
2023-02-01T17:26:30.772Z,8.78
2023-02-01T17:30:42.681Z,8.78
2023-02-01T17:34:54.272Z,8.83
2023-02-01T17:39:06.737Z,8.81
2023-02-01T17:43:25.086Z,8.88
2023-02-01T17:47:36.774Z,8.87
2023-02-01T17:51:50.496Z,8.91
2023-02-01T17:56:02.306Z,8.87
2023-02-01T18:00:15.060Z,8.84
2023-02-01T18:04:26.944Z,8.88
2023-02-01T18:08:40.046Z,8.88
2023-02-01T18:12:51.615Z,8.88
2023-02-01T18:17:03.300Z,8.94
2023-02-01T18:21:17.531Z,8.92
2023-02-01T18:25:34.116Z,8.77
2023-02-01T18:29:45.763Z,8.80
2023-02-01T18:33:59.107Z,8.78
2023-02-01T18:38:13.543Z,8.68
2023-02-01T18:42:25.265Z,8.64
2023-02-01T18:46:37.099Z,8.18
2023-02-01T18:50:57.683Z,7.53
2023-02-01T18:55:10.908Z,7.13
2023-02-01T18:59:22.660Z,7.10
2023-02-01T19:03:41.735Z,7.03
2023-02-01T19:07:56.981Z,7.02
2023-02-01T19:12:08.688Z,7.04
2023-02-01T19:16:20.374Z,7.08
2023-02-01T19:20:32.489Z,7.09
2023-02-01T19:24:44.297Z,7.15
2023-02-01T19:29:00.177Z,6.98
2023-02-01T19:33:14.079Z,7.04
2023-02-01T19:37:27.791Z,6.67
2023-02-01T19:41:51.782Z,6.73
2023-02-01T19:46:11.708Z,6.76
2023-02-01T19:50:23.391Z,6.74
2023-02-01T19:54:35.291Z,6.81
2023-02-01T19:58:52.624Z,6.89
2023-02-01T20:03:13.260Z,7.04
2023-02-01T20:07:25.507Z,7.10
2023-02-01T20:11:41.222Z,7.21
2023-02-01T20:15:57.791Z,7.38
2023-02-01T20:20:10.070Z,7.47
2023-02-01T20:24:21.728Z,7.71
2023-02-01T20:28:35.026Z,7.83
2023-02-01T20:32:49.550Z,7.93
2023-02-01T20:37:01.172Z,8.02
2023-02-01T20:41:12.863Z,8.09
2023-02-01T20:45:25.830Z,8.10
2023-02-01T20:49:40.354Z,8.14
2023-02-01T20:53:53.710Z,8.14
2023-02-01T20:58:05.750Z,8.05
2023-02-01T21:02:17.317Z,8.00
2023-02-01T21:06:28.888Z,8.23
2023-02-01T21:10:40.555Z,8.28
2023-02-01T21:14:52.041Z,8.29
2023-02-01T21:19:03.952Z,8.33
2023-02-01T21:23:16.750Z,8.34
2023-02-01T21:27:29.346Z,8.17
2023-02-01T21:31:43.536Z,8.29
2023-02-01T21:35:55.534Z,8.15
2023-02-01T21:40:07.547Z,8.00
2023-02-01T21:44:19.708Z,8.07
2023-02-01T21:48:31.428Z,8.14
2023-02-01T21:53:03.211Z,8.12
2023-02-01T21:57:14.980Z,8.19
2023-02-01T22:01:26.679Z,8.22
2023-02-01T22:05:38.560Z,8.04
2023-02-01T22:09:50.208Z,8.08
2023-02-01T22:14:01.848Z,8.30
2023-02-01T22:18:13.482Z,8.21
2023-02-01T22:22:25.082Z,8.10
2023-02-01T22:26:36.846Z,8.16
2023-02-01T22:30:48.660Z,8.30
2023-02-01T22:35:01.677Z,8.17
2023-02-01T22:39:13.355Z,8.27
2023-02-01T22:43:25.921Z,8.30
2023-02-01T22:47:37.532Z,8.16
2023-02-01T22:51:50.889Z,8.10
2023-02-01T22:56:04.622Z,8.00
2023-02-01T23:00:16.353Z,7.98
2023-02-01T23:04:27.904Z,7.92
2023-02-01T23:08:40.476Z,7.77
2023-02-01T23:12:52.027Z,7.74
2023-02-01T23:17:03.575Z,7.81
2023-02-01T23:21:20.433Z,7.87
2023-02-01T23:25:32.076Z,7.87
2023-02-01T23:29:43.689Z,7.90
2023-02-01T23:33:56.557Z,7.90
2023-02-01T23:38:08.162Z,7.78
2023-02-01T23:42:20.657Z,7.78
2023-02-01T23:46:35.063Z,7.97
2023-02-01T23:50:46.737Z,7.85
2023-02-01T23:54:58.699Z,7.81
2023-02-01T23:59:14.259Z,7.81
